sensor_id;sensor_type;location;lat;lon;timestamp;pressure;altitude;pressure_sealevel;temperature;humidity
34328;BME280;20588;48.840;10.064;2023-03-03T00:01:04;96610.63;;;0.66;nan
34328;BME280;20588;48.840;10.064;2023-03-03T00:03:30;96609.97;;;0.64;nan
34328;BME280;20588;48.840;10.064;2023-03-03T00:05:56;96612.66;;;0.63;nan
34328;BME280;20588;48.840;10.064;2023-03-03T00:08:23;96611.38;;;0.59;nan
34328;BME280;20588;48.840;10.064;2023-03-03T00:10:50;96607.22;;;0.58;nan
34328;BME280;20588;48.840;10.064;2023-03-03T00:13:24;96613.75;;;0.60;nan
34328;BME280;20588;48.840;10.064;2023-03-03T00:15:52;96615.19;;;0.63;nan
34328;BME280;20588;48.840;10.064;2023-03-03T00:18:31;96615.03;;;0.64;nan
34328;BME280;20588;48.840;10.064;2023-03-03T00:21:01;96609.81;;;0.66;nan
34328;BME280;20588;48.840;10.064;2023-03-03T00:23:37;96611.41;;;0.67;nan
34328;BME280;20588;48.840;10.064;2023-03-03T00:26:43;96607.94;;;0.68;nan
34328;BME280;20588;48.840;10.064;2023-03-03T00:29:32;96614.59;;;0.69;nan
34328;BME280;20588;48.840;10.064;2023-03-03T00:34:45;96617.56;;;0.64;nan
34328;BME280;20588;48.840;10.064;2023-03-03T00:37:33;96618.81;;;0.60;nan
34328;BME280;20588;48.840;10.064;2023-03-03T00:40:23;96624.31;;;0.56;nan
34328;BME280;20588;48.840;10.064;2023-03-03T00:42:52;96626.19;;;0.54;nan
34328;BME280;20588;48.840;10.064;2023-03-03T00:47:54;96630.28;;;0.55;nan
34328;BME280;20588;48.840;10.064;2023-03-03T00:50:25;96618.72;;;0.52;nan
34328;BME280;20588;48.840;10.064;2023-03-03T00:55:29;96619.03;;;0.49;nan
34328;BME280;20588;48.840;10.064;2023-03-03T00:57:56;96612.16;;;0.42;nan
34328;BME280;20588;48.840;10.064;2023-03-03T01:00:22;96621.63;;;0.40;nan
34328;BME280;20588;48.840;10.064;2023-03-03T01:02:48;96618.16;;;0.41;nan
34328;BME280;20588;48.840;10.064;2023-03-03T01:05:16;96620.19;;;0.37;nan
34328;BME280;20588;48.840;10.064;2023-03-03T01:07:43;96613.97;;;0.32;nan
34328;BME280;20588;48.840;10.064;2023-03-03T01:10:10;96612.22;;;0.32;nan
34328;BME280;20588;48.840;10.064;2023-03-03T01:12:36;96618.91;;;0.33;nan
34328;BME280;20588;48.840;10.064;2023-03-03T01:15:05;96612.09;;;0.34;nan
34328;BME280;20588;48.840;10.064;2023-03-03T01:17:31;96610.50;;;0.33;nan
34328;BME280;20588;48.840;10.064;2023-03-03T01:19:57;96600.09;;;0.36;nan
34328;BME280;20588;48.840;10.064;2023-03-03T01:22:23;96602.47;;;0.37;nan
34328;BME280;20588;48.840;10.064;2023-03-03T01:24:49;96598.84;;;0.40;nan
34328;BME280;20588;48.840;10.064;2023-03-03T01:27:15;96599.50;;;0.42;nan
34328;BME280;20588;48.840;10.064;2023-03-03T01:29:41;96592.28;;;0.47;nan
34328;BME280;20588;48.840;10.064;2023-03-03T01:32:07;96585.19;;;0.50;nan
34328;BME280;20588;48.840;10.064;2023-03-03T01:34:33;96598.19;;;0.55;nan
34328;BME280;20588;48.840;10.064;2023-03-03T01:36:59;96589.34;;;0.59;nan
34328;BME280;20588;48.840;10.064;2023-03-03T01:39:26;96596.66;;;0.62;nan
34328;BME280;20588;48.840;10.064;2023-03-03T01:41:52;96595.59;;;0.65;nan
34328;BME280;20588;48.840;10.064;2023-03-03T01:44:18;96592.75;;;0.68;nan
34328;BME280;20588;48.840;10.064;2023-03-03T01:46:54;96594.19;;;0.70;nan
34328;BME280;20588;48.840;10.064;2023-03-03T01:49:30;96597.53;;;0.71;nan
34328;BME280;20588;48.840;10.064;2023-03-03T01:52:12;96594.34;;;0.69;nan
34328;BME280;20588;48.840;10.064;2023-03-03T01:54:43;96594.84;;;0.72;nan
34328;BME280;20588;48.840;10.064;2023-03-03T01:57:17;96598.81;;;0.75;nan
34328;BME280;20588;48.840;10.064;2023-03-03T01:59:48;96597.91;;;0.76;nan
34328;BME280;20588;48.840;10.064;2023-03-03T02:02:15;96595.50;;;0.74;nan
34328;BME280;20588;48.840;10.064;2023-03-03T02:04:41;96587.91;;;0.74;nan
34328;BME280;20588;48.840;10.064;2023-03-03T02:07:11;96586.97;;;0.75;nan
34328;BME280;20588;48.840;10.064;2023-03-03T02:09:48;96584.72;;;0.72;nan
34328;BME280;20588;48.840;10.064;2023-03-03T02:12:18;96589.00;;;0.72;nan
34328;BME280;20588;48.840;10.064;2023-03-03T02:14:47;96583.94;;;0.72;nan
34328;BME280;20588;48.840;10.064;2023-03-03T02:17:13;96573.81;;;0.72;nan
34328;BME280;20588;48.840;10.064;2023-03-03T02:19:53;96571.13;;;0.73;nan
34328;BME280;20588;48.840;10.064;2023-03-03T02:23:12;96573.22;;;0.78;nan
34328;BME280;20588;48.840;10.064;2023-03-03T02:25:30;96573.06;;;0.79;nan
34328;BME280;20588;48.840;10.064;2023-03-03T02:27:58;96575.00;;;0.85;nan
34328;BME280;20588;48.840;10.064;2023-03-03T02:30:25;96567.91;;;0.89;nan
34328;BME280;20588;48.840;10.064;2023-03-03T02:32:51;96569.34;;;0.91;nan
34328;BME280;20588;48.840;10.064;2023-03-03T02:35:38;96571.72;;;0.93;nan
34328;BME280;20588;48.840;10.064;2023-03-03T02:38:17;96565.59;;;0.95;nan
34328;BME280;20588;48.840;10.064;2023-03-03T02:40:57;96565.28;;;0.98;nan
34328;BME280;20588;48.840;10.064;2023-03-03T02:43:28;96575.13;;;1.01;nan
34328;BME280;20588;48.840;10.064;2023-03-03T02:45:56;96573.22;;;1.03;nan
34328;BME280;20588;48.840;10.064;2023-03-03T02:48:22;96572.28;;;1.04;nan
34328;BME280;20588;48.840;10.064;2023-03-03T02:50:48;96575.75;;;1.03;nan
34328;BME280;20588;48.840;10.064;2023-03-03T02:53:15;96578.94;;;1.05;nan
34328;BME280;20588;48.840;10.064;2023-03-03T02:55:41;96575.59;;;1.05;nan
34328;BME280;20588;48.840;10.064;2023-03-03T02:58:07;96580.50;;;1.06;nan
34328;BME280;20588;48.840;10.064;2023-03-03T03:00:33;96582.13;;;1.07;nan
34328;BME280;20588;48.840;10.064;2023-03-03T03:02:59;96584.66;;;1.07;nan
34328;BME280;20588;48.840;10.064;2023-03-03T03:05:25;96584.50;;;1.09;nan
34328;BME280;20588;48.840;10.064;2023-03-03T03:07:51;96580.06;;;1.11;nan
34328;BME280;20588;48.840;10.064;2023-03-03T03:10:17;96579.13;;;1.12;nan
34328;BME280;20588;48.840;10.064;2023-03-03T03:12:43;96585.78;;;1.13;nan
34328;BME280;20588;48.840;10.064;2023-03-03T03:15:09;96593.38;;;1.13;nan
34328;BME280;20588;48.840;10.064;2023-03-03T03:17:39;96585.78;;;1.13;nan
34328;BME280;20588;48.840;10.064;2023-03-03T03:20:05;96583.41;;;1.11;nan
34328;BME280;20588;48.840;10.064;2023-03-03T03:22:31;96583.41;;;1.11;nan
34328;BME280;20588;48.840;10.064;2023-03-03T03:24:57;96586.72;;;1.12;nan
34328;BME280;20588;48.840;10.064;2023-03-03T03:27:23;96581.81;;;1.10;nan
34328;BME280;20588;48.840;10.064;2023-03-03T03:29:49;96575.00;;;1.11;nan
34328;BME280;20588;48.840;10.064;2023-03-03T03:32:15;96583.41;;;1.11;nan
34328;BME280;20588;48.840;10.064;2023-03-03T03:34:42;96582.75;;;1.09;nan
34328;BME280;20588;48.840;10.064;2023-03-03T03:37:08;96585.41;;;1.08;nan
34328;BME280;20588;48.840;10.064;2023-03-03T03:39:35;96584.66;;;1.07;nan
34328;BME280;20588;48.840;10.064;2023-03-03T03:42:01;96586.22;;;1.08;nan
34328;BME280;20588;48.840;10.064;2023-03-03T03:44:27;96592.09;;;1.09;nan
34328;BME280;20588;48.840;10.064;2023-03-03T03:46:53;96590.34;;;1.09;nan
34328;BME280;20588;48.840;10.064;2023-03-03T03:49:19;96588.91;;;1.07;nan
34328;BME280;20588;48.840;10.064;2023-03-03T03:51:46;96587.34;;;1.06;nan
34328;BME280;20588;48.840;10.064;2023-03-03T03:54:12;96592.03;;;1.01;nan
34328;BME280;20588;48.840;10.064;2023-03-03T03:56:38;96591.84;;;0.94;nan
34328;BME280;20588;48.840;10.064;2023-03-03T03:59:06;96595.91;;;0.87;nan
34328;BME280;20588;48.840;10.064;2023-03-03T04:01:32;96593.97;;;0.81;nan
34328;BME280;20588;48.840;10.064;2023-03-03T04:03:58;96600.69;;;0.73;nan
34328;BME280;20588;48.840;10.064;2023-03-03T04:06:24;96602.91;;;0.68;nan
34328;BME280;20588;48.840;10.064;2023-03-03T04:08:51;96599.19;;;0.62;nan
34328;BME280;20588;48.840;10.064;2023-03-03T04:11:17;96600.88;;;0.54;nan
34328;BME280;20588;48.840;10.064;2023-03-03T04:13:43;96591.03;;;0.51;nan
34328;BME280;20588;48.840;10.064;2023-03-03T04:16:09;96592.44;;;0.45;nan
34328;BME280;20588;48.840;10.064;2023-03-03T04:18:35;96590.19;;;0.42;nan
34328;BME280;20588;48.840;10.064;2023-03-03T04:21:01;96593.00;;;0.39;nan
34328;BME280;20588;48.840;10.064;2023-03-03T04:23:27;96595.19;;;0.34;nan
34328;BME280;20588;48.840;10.064;2023-03-03T04:25:53;96596.41;;;0.30;nan
34328;BME280;20588;48.840;10.064;2023-03-03T04:28:19;96596.03;;;0.25;nan
34328;BME280;20588;48.840;10.064;2023-03-03T04:30:46;96600.09;;;0.18;nan
34328;BME280;20588;48.840;10.064;2023-03-03T04:33:12;96602.25;;;0.13;nan
34328;BME280;20588;48.840;10.064;2023-03-03T04:35:38;96603.63;;;0.08;nan
34328;BME280;20588;48.840;10.064;2023-03-03T04:38:04;96596.47;;;0.03;nan
34328;BME280;20588;48.840;10.064;2023-03-03T04:40:30;96599.41;;;-0.02;nan
34328;BME280;20588;48.840;10.064;2023-03-03T04:42:56;96598.91;;;-0.05;nan
34328;BME280;20588;48.840;10.064;2023-03-03T04:45:22;96596.81;;;-0.10;nan
34328;BME280;20588;48.840;10.064;2023-03-03T04:47:48;96597.38;;;-0.16;nan
34328;BME280;20588;48.840;10.064;2023-03-03T04:50:14;96594.84;;;-0.16;nan
34328;BME280;20588;48.840;10.064;2023-03-03T04:52:41;96602.88;;;-0.20;nan
34328;BME280;20588;48.840;10.064;2023-03-03T04:55:07;96614.84;;;-0.22;nan
34328;BME280;20588;48.840;10.064;2023-03-03T04:57:34;96611.44;;;-0.31;nan
34328;BME280;20588;48.840;10.064;2023-03-03T05:00:00;96613.72;;;-0.37;nan
34328;BME280;20588;48.840;10.064;2023-03-03T05:02:26;96614.28;;;-0.43;nan
34328;BME280;20588;48.840;10.064;2023-03-03T05:04:52;96616.28;;;-0.47;nan
34328;BME280;20588;48.840;10.064;2023-03-03T05:07:18;96621.13;;;-0.53;nan
34328;BME280;20588;48.840;10.064;2023-03-03T05:09:45;96632.13;;;-0.54;nan
34328;BME280;20588;48.840;10.064;2023-03-03T05:12:11;96620.19;;;-0.62;nan
34328;BME280;20588;48.840;10.064;2023-03-03T05:14:37;96620.63;;;-0.66;nan
34328;BME280;20588;48.840;10.064;2023-03-03T05:17:03;96626.88;;;-0.70;nan
34328;BME280;20588;48.840;10.064;2023-03-03T05:19:30;96621.16;;;-0.72;nan
34328;BME280;20588;48.840;10.064;2023-03-03T05:21:57;96623.31;;;-0.77;nan
34328;BME280;20588;48.840;10.064;2023-03-03T05:24:23;96625.31;;;-0.81;nan
34328;BME280;20588;48.840;10.064;2023-03-03T05:26:49;96635.16;;;-0.87;nan
34328;BME280;20588;48.840;10.064;2023-03-03T05:29:15;96633.88;;;-0.91;nan
34328;BME280;20588;48.840;10.064;2023-03-03T05:31:42;96636.00;;;-0.96;nan
34328;BME280;20588;48.840;10.064;2023-03-03T05:34:08;96634.28;;;-0.96;nan
34328;BME280;20588;48.840;10.064;2023-03-03T05:36:34;96635.03;;;-0.95;nan
34328;BME280;20588;48.840;10.064;2023-03-03T05:39:00;96642.75;;;-0.97;nan
34328;BME280;20588;48.840;10.064;2023-03-03T05:41:26;96646.09;;;-0.96;nan
34328;BME280;20588;48.840;10.064;2023-03-03T05:43:52;96651.00;;;-0.95;nan
34328;BME280;20588;48.840;10.064;2023-03-03T05:46:18;96654.06;;;-0.91;nan
34328;BME280;20588;48.840;10.064;2023-03-03T05:48:44;96649.09;;;-0.83;nan
34328;BME280;20588;48.840;10.064;2023-03-03T05:51:11;96655.63;;;-0.81;nan
34328;BME280;20588;48.840;10.064;2023-03-03T05:53:37;96656.13;;;-0.77;nan
34328;BME280;20588;48.840;10.064;2023-03-03T05:56:03;96659.06;;;-0.72;nan
34328;BME280;20588;48.840;10.064;2023-03-03T05:58:29;96656.13;;;-0.68;nan
34328;BME280;20588;48.840;10.064;2023-03-03T06:00:55;96656.66;;;-0.64;nan
34328;BME280;20588;48.840;10.064;2023-03-03T06:03:21;96650.22;;;-0.59;nan
34328;BME280;20588;48.840;10.064;2023-03-03T06:05:47;96654.22;;;-0.56;nan
34328;BME280;20588;48.840;10.064;2023-03-03T06:08:13;96660.59;;;-0.52;nan
34328;BME280;20588;48.840;10.064;2023-03-03T06:10:40;96665.38;;;-0.49;nan
34328;BME280;20588;48.840;10.064;2023-03-03T06:13:06;96663.22;;;-0.44;nan
34328;BME280;20588;48.840;10.064;2023-03-03T06:15:32;96663.59;;;-0.39;nan
34328;BME280;20588;48.840;10.064;2023-03-03T06:17:58;96664.94;;;-0.35;nan
34328;BME280;20588;48.840;10.064;2023-03-03T06:20:24;96670.34;;;-0.30;nan
34328;BME280;20588;48.840;10.064;2023-03-03T06:22:50;96675.63;;;-0.24;nan
34328;BME280;20588;48.840;10.064;2023-03-03T06:25:16;96672.41;;;-0.16;nan
34328;BME280;20588;48.840;10.064;2023-03-03T06:27:43;96680.38;;;-0.11;nan
34328;BME280;20588;48.840;10.064;2023-03-03T06:30:09;96679.00;;;-0.06;nan
34328;BME280;20588;48.840;10.064;2023-03-03T06:32:35;96678.44;;;0.00;nan
34328;BME280;20588;48.840;10.064;2023-03-03T06:35:01;96678.69;;;0.07;nan
34328;BME280;20588;48.840;10.064;2023-03-03T06:37:28;96683.31;;;0.12;nan
34328;BME280;20588;48.840;10.064;2023-03-03T06:39:54;96687.97;;;0.16;nan
34328;BME280;20588;48.840;10.064;2023-03-03T06:42:20;96687.69;;;0.19;nan
34328;BME280;20588;48.840;10.064;2023-03-03T06:44:46;96696.28;;;0.26;nan
34328;BME280;20588;48.840;10.064;2023-03-03T06:47:12;96688.41;;;0.29;nan
34328;BME280;20588;48.840;10.064;2023-03-03T06:49:38;96696.38;;;0.34;nan
34328;BME280;20588;48.840;10.064;2023-03-03T06:52:12;96693.56;;;0.37;nan
34328;BME280;20588;48.840;10.064;2023-03-03T06:54:39;96694.56;;;0.44;nan
34328;BME280;20588;48.840;10.064;2023-03-03T06:57:34;96693.69;;;0.53;nan
34328;BME280;20588;48.840;10.064;2023-03-03T07:00:23;96698.84;;;0.61;nan
34328;BME280;20588;48.840;10.064;2023-03-03T07:03:00;96704.91;;;0.68;nan
34328;BME280;20588;48.840;10.064;2023-03-03T07:05:30;96704.28;;;0.84;nan
34328;BME280;20588;48.840;10.064;2023-03-03T07:07:57;96703.09;;;0.96;nan
34328;BME280;20588;48.840;10.064;2023-03-03T07:10:28;96710.34;;;1.08;nan
34328;BME280;20588;48.840;10.064;2023-03-03T07:13:01;96696.19;;;1.23;nan
34328;BME280;20588;48.840;10.064;2023-03-03T07:15:36;96699.44;;;1.33;nan
34328;BME280;20588;48.840;10.064;2023-03-03T07:18:10;96700.16;;;1.43;nan
34328;BME280;20588;48.840;10.064;2023-03-03T07:20:46;96718.28;;;1.56;nan
34328;BME280;20588;48.840;10.064;2023-03-03T07:23:23;96724.38;;;1.71;nan
34328;BME280;20588;48.840;10.064;2023-03-03T07:25:50;96709.06;;;1.81;nan
34328;BME280;20588;48.840;10.064;2023-03-03T07:30:50;96707.13;;;2.09;nan
34328;BME280;20588;48.840;10.064;2023-03-03T07:33:28;96704.03;;;2.23;nan
34328;BME280;20588;48.840;10.064;2023-03-03T07:35:56;96708.50;;;2.37;nan
34328;BME280;20588;48.840;10.064;2023-03-03T07:38:33;96716.31;;;2.51;nan
34328;BME280;20588;48.840;10.064;2023-03-03T07:41:07;96713.97;;;2.66;nan
34328;BME280;20588;48.840;10.064;2023-03-03T07:43:47;96715.59;;;2.83;nan
34328;BME280;20588;48.840;10.064;2023-03-03T07:46:29;96717.19;;;3.00;nan
34328;BME280;20588;48.840;10.064;2023-03-03T07:49:00;96717.81;;;3.10;nan
34328;BME280;20588;48.840;10.064;2023-03-03T07:51:37;96725.47;;;3.18;nan
34328;BME280;20588;48.840;10.064;2023-03-03T07:57:20;96717.94;;;3.48;nan
34328;BME280;20588;48.840;10.064;2023-03-03T07:59:49;96724.13;;;3.62;nan
34328;BME280;20588;48.840;10.064;2023-03-03T08:05:29;96721.66;;;4.01;nan
34328;BME280;20588;48.840;10.064;2023-03-03T08:08:09;96724.53;;;4.36;nan
34328;BME280;20588;48.840;10.064;2023-03-03T08:10:52;96725.75;;;4.79;nan
34328;BME280;20588;48.840;10.064;2023-03-03T08:15:55;96719.78;;;5.69;nan
34328;BME280;20588;48.840;10.064;2023-03-03T08:18:28;96724.50;;;6.09;nan
34328;BME280;20588;48.840;10.064;2023-03-03T08:21:00;96716.44;;;6.41;nan
34328;BME280;20588;48.840;10.064;2023-03-03T08:23:27;96719.19;;;6.75;nan
34328;BME280;20588;48.840;10.064;2023-03-03T08:25:54;96723.41;;;7.03;nan
34328;BME280;20588;48.840;10.064;2023-03-03T08:28:21;96728.16;;;7.27;nan
34328;BME280;20588;48.840;10.064;2023-03-03T08:30:48;96735.47;;;7.30;nan
34328;BME280;20588;48.840;10.064;2023-03-03T08:33:15;96733.59;;;7.39;nan
34328;BME280;20588;48.840;10.064;2023-03-03T08:35:41;96744.41;;;7.41;nan
34328;BME280;20588;48.840;10.064;2023-03-03T08:38:08;96743.13;;;7.52;nan
34328;BME280;20588;48.840;10.064;2023-03-03T08:40:35;96742.59;;;7.84;nan
34328;BME280;20588;48.840;10.064;2023-03-03T08:43:01;96745.13;;;8.11;nan
34328;BME280;20588;48.840;10.064;2023-03-03T08:45:27;96743.31;;;8.33;nan
34328;BME280;20588;48.840;10.064;2023-03-03T08:47:54;96750.75;;;8.68;nan
34328;BME280;20588;48.840;10.064;2023-03-03T08:50:20;96744.91;;;8.87;nan
34328;BME280;20588;48.840;10.064;2023-03-03T08:52:47;96744.91;;;8.94;nan
34328;BME280;20588;48.840;10.064;2023-03-03T08:55:13;96750.22;;;8.92;nan
34328;BME280;20588;48.840;10.064;2023-03-03T08:57:39;96752.41;;;8.89;nan
34328;BME280;20588;48.840;10.064;2023-03-03T09:00:08;96750.28;;;9.05;nan
34328;BME280;20588;48.840;10.064;2023-03-03T09:02:35;96748.69;;;9.04;nan
34328;BME280;20588;48.840;10.064;2023-03-03T09:05:01;96745.53;;;9.09;nan
34328;BME280;20588;48.840;10.064;2023-03-03T09:07:27;96740.19;;;9.04;nan
34328;BME280;20588;48.840;10.064;2023-03-03T09:09:53;96738.25;;;9.19;nan
34328;BME280;20588;48.840;10.064;2023-03-03T09:12:34;96746.38;;;9.36;nan
34328;BME280;20588;48.840;10.064;2023-03-03T09:15:15;96751.88;;;9.85;nan
34328;BME280;20588;48.840;10.064;2023-03-03T09:17:42;96747.06;;;10.91;nan
34328;BME280;20588;48.840;10.064;2023-03-03T09:20:30;96760.94;;;11.21;nan
34328;BME280;20588;48.840;10.064;2023-03-03T09:22:58;96770.13;;;11.11;nan
34328;BME280;20588;48.840;10.064;2023-03-03T09:25:32;96758.38;;;10.83;nan
34328;BME280;20588;48.840;10.064;2023-03-03T09:27:59;96767.13;;;10.76;nan
34328;BME280;20588;48.840;10.064;2023-03-03T09:30:39;96768.22;;;10.49;nan
34328;BME280;20588;48.840;10.064;2023-03-03T09:35:50;96773.06;;;10.13;nan
34328;BME280;20588;48.840;10.064;2023-03-03T09:38:28;96776.81;;;9.97;nan
34328;BME280;20588;48.840;10.064;2023-03-03T09:50:06;96776.00;;;10.03;nan
34328;BME280;20588;48.840;10.064;2023-03-03T09:57:56;96782.34;;;10.27;nan
34328;BME280;20588;48.840;10.064;2023-03-03T10:08:36;96777.06;;;10.66;nan
34328;BME280;20588;48.840;10.064;2023-03-03T10:11:34;96781.06;;;10.55;nan
34328;BME280;20588;48.840;10.064;2023-03-03T10:25:34;96781.28;;;10.41;nan
34328;BME280;20588;48.840;10.064;2023-03-03T10:31:41;96774.31;;;10.54;nan
34328;BME280;20588;48.840;10.064;2023-03-03T10:37:23;96779.06;;;11.39;nan
34328;BME280;20588;48.840;10.064;2023-03-03T10:45:28;96778.41;;;11.19;nan
34328;BME280;20588;48.840;10.064;2023-03-03T10:48:11;96780.78;;;11.21;nan
34328;BME280;20588;48.840;10.064;2023-03-03T10:51:01;96778.97;;;11.21;nan
34328;BME280;20588;48.840;10.064;2023-03-03T10:53:33;96778.75;;;11.29;nan
34328;BME280;20588;48.840;10.064;2023-03-03T10:56:25;96781.81;;;11.44;nan
34328;BME280;20588;48.840;10.064;2023-03-03T11:09:54;96791.72;;;12.21;nan
34328;BME280;20588;48.840;10.064;2023-03-03T11:12:52;96797.00;;;12.32;nan
34328;BME280;20588;48.840;10.064;2023-03-03T11:23:29;96795.78;;;12.53;nan
34328;BME280;20588;48.840;10.064;2023-03-03T11:26:12;96787.19;;;12.59;nan
34328;BME280;20588;48.840;10.064;2023-03-03T11:36:52;96771.41;;;13.33;nan
34328;BME280;20588;48.840;10.064;2023-03-03T11:39:25;96778.75;;;13.59;nan
34328;BME280;20588;48.840;10.064;2023-03-03T11:47:24;96768.56;;;14.21;nan
34328;BME280;20588;48.840;10.064;2023-03-03T11:55:46;96758.09;;;15.47;nan
34328;BME280;20588;48.840;10.064;2023-03-03T11:58:33;96760.66;;;15.91;nan
34328;BME280;20588;48.840;10.064;2023-03-03T12:04:00;96749.81;;;15.61;nan
34328;BME280;20588;48.840;10.064;2023-03-03T12:09:55;96740.19;;;15.78;nan
34328;BME280;20588;48.840;10.064;2023-03-03T12:12:29;96740.91;;;16.28;nan
34328;BME280;20588;48.840;10.064;2023-03-03T12:15:44;96740.75;;;17.00;nan
34328;BME280;20588;48.840;10.064;2023-03-03T12:18:33;96737.72;;;17.61;nan
34328;BME280;20588;48.840;10.064;2023-03-03T12:21:06;96738.41;;;16.98;nan
34328;BME280;20588;48.840;10.064;2023-03-03T12:23:57;96734.81;;;16.78;nan
34328;BME280;20588;48.840;10.064;2023-03-03T12:29:23;96737.97;;;17.06;nan
34328;BME280;20588;48.840;10.064;2023-03-03T12:34:38;96730.72;;;17.61;nan
34328;BME280;20588;48.840;10.064;2023-03-03T12:40:23;96723.78;;;17.77;nan
34328;BME280;20588;48.840;10.064;2023-03-03T12:48:35;96711.94;;;17.96;nan
34328;BME280;20588;48.840;10.064;2023-03-03T12:51:45;96723.06;;;17.86;nan
34328;BME280;20588;48.840;10.064;2023-03-03T13:10:53;96716.47;;;17.42;nan
34328;BME280;20588;48.840;10.064;2023-03-03T13:13:43;96720.56;;;17.65;nan
34328;BME280;20588;48.840;10.064;2023-03-03T13:16:23;96712.69;;;17.55;nan
34328;BME280;20588;48.840;10.064;2023-03-03T13:18:59;96712.78;;;17.38;nan
34328;BME280;20588;48.840;10.064;2023-03-03T13:21:39;96712.97;;;17.32;nan
34328;BME280;20588;48.840;10.064;2023-03-03T13:24:44;96709.50;;;17.21;nan
34328;BME280;20588;48.840;10.064;2023-03-03T13:27:19;96712.78;;;17.12;nan
34328;BME280;20588;48.840;10.064;2023-03-03T13:30:14;96706.09;;;17.16;nan
34328;BME280;20588;48.840;10.064;2023-03-03T13:33:05;96693.03;;;17.11;nan
34328;BME280;20588;48.840;10.064;2023-03-03T13:35:44;96709.63;;;16.83;nan
34328;BME280;20588;48.840;10.064;2023-03-03T13:38:20;96697.22;;;16.64;nan
34328;BME280;20588;48.840;10.064;2023-03-03T13:40:53;96694.03;;;16.57;nan
34328;BME280;20588;48.840;10.064;2023-03-03T13:44:08;96694.69;;;16.69;nan
34328;BME280;20588;48.840;10.064;2023-03-03T13:46:16;96688.88;;;16.40;nan
34328;BME280;20588;48.840;10.064;2023-03-03T13:51:38;96689.88;;;16.17;nan
34328;BME280;20588;48.840;10.064;2023-03-03T14:00:15;96677.72;;;16.01;nan
34328;BME280;20588;48.840;10.064;2023-03-03T14:13:28;96674.22;;;15.74;nan
34328;BME280;20588;48.840;10.064;2023-03-03T14:18:39;96668.19;;;15.52;nan
34328;BME280;20588;48.840;10.064;2023-03-03T14:21:27;96664.38;;;15.27;nan
34328;BME280;20588;48.840;10.064;2023-03-03T14:24:25;96667.91;;;15.21;nan
34328;BME280;20588;48.840;10.064;2023-03-03T14:26:56;96672.84;;;15.06;nan
34328;BME280;20588;48.840;10.064;2023-03-03T14:31:53;96674.00;;;14.98;nan
34328;BME280;20588;48.840;10.064;2023-03-03T14:36:58;96674.25;;;14.69;nan
34328;BME280;20588;48.840;10.064;2023-03-03T14:39:37;96671.41;;;14.54;nan
34328;BME280;20588;48.840;10.064;2023-03-03T14:42:13;96673.19;;;14.53;nan
34328;BME280;20588;48.840;10.064;2023-03-03T14:47:23;96671.09;;;14.38;nan
34328;BME280;20588;48.840;10.064;2023-03-03T14:49:52;96671.78;;;14.22;nan
34328;BME280;20588;48.840;10.064;2023-03-03T14:52:29;96671.47;;;14.19;nan
34328;BME280;20588;48.840;10.064;2023-03-03T14:55:00;96672.94;;;14.03;nan
34328;BME280;20588;48.840;10.064;2023-03-03T15:03:00;96672.72;;;13.59;nan
34328;BME280;20588;48.840;10.064;2023-03-03T15:05:28;96672.38;;;13.44;nan
34328;BME280;20588;48.840;10.064;2023-03-03T15:10:32;96668.31;;;13.25;nan
34328;BME280;20588;48.840;10.064;2023-03-03T15:18:24;96663.16;;;12.95;nan
34328;BME280;20588;48.840;10.064;2023-03-03T15:29:41;96653.59;;;12.54;nan
34328;BME280;20588;48.840;10.064;2023-03-03T15:32:30;96651.63;;;12.38;nan
34328;BME280;20588;48.840;10.064;2023-03-03T15:44:31;96655.75;;;11.92;nan
34328;BME280;20588;48.840;10.064;2023-03-03T15:47:31;96654.28;;;11.78;nan
34328;BME280;20588;48.840;10.064;2023-03-03T15:56:12;96660.34;;;11.41;nan
34328;BME280;20588;48.840;10.064;2023-03-03T16:01:23;96665.50;;;11.16;nan
34328;BME280;20588;48.840;10.064;2023-03-03T16:06:29;96667.03;;;10.92;nan
34328;BME280;20588;48.840;10.064;2023-03-03T16:12:12;96663.44;;;10.69;nan
34328;BME280;20588;48.840;10.064;2023-03-03T16:14:57;96663.50;;;10.56;nan
34328;BME280;20588;48.840;10.064;2023-03-03T16:17:31;96675.81;;;10.41;nan
34328;BME280;20588;48.840;10.064;2023-03-03T16:23:02;96675.72;;;10.16;nan
34328;BME280;20588;48.840;10.064;2023-03-03T16:31:12;96691.00;;;9.79;nan
34328;BME280;20588;48.840;10.064;2023-03-03T16:34:02;96697.19;;;9.65;nan
34328;BME280;20588;48.840;10.064;2023-03-03T16:42:12;96711.56;;;9.13;nan
34328;BME280;20588;48.840;10.064;2023-03-03T16:53:41;96721.63;;;8.35;nan
34328;BME280;20588;48.840;10.064;2023-03-03T17:02:43;96739.56;;;7.74;nan
34328;BME280;20588;48.840;10.064;2023-03-03T17:11:17;96742.00;;;7.12;nan
34328;BME280;20588;48.840;10.064;2023-03-03T17:28:20;96766.31;;;5.93;nan
34328;BME280;20588;48.840;10.064;2023-03-03T17:34:00;96771.22;;;5.57;nan
34328;BME280;20588;48.840;10.064;2023-03-03T17:39:14;96776.31;;;5.20;nan
34328;BME280;20588;48.840;10.064;2023-03-03T17:41:57;96775.16;;;5.00;nan
34328;BME280;20588;48.840;10.064;2023-03-03T17:45:04;96798.88;;;4.78;nan
34328;BME280;20588;48.840;10.064;2023-03-03T17:53:10;96797.78;;;4.42;nan
34328;BME280;20588;48.840;10.064;2023-03-03T17:55:55;96793.03;;;4.31;nan
34328;BME280;20588;48.840;10.064;2023-03-03T17:58:33;96805.28;;;4.20;nan
34328;BME280;20588;48.840;10.064;2023-03-03T18:04:18;96804.41;;;3.97;nan
34328;BME280;20588;48.840;10.064;2023-03-03T18:16:05;96804.09;;;3.51;nan
34328;BME280;20588;48.840;10.064;2023-03-03T18:18:55;96805.38;;;3.39;nan
34328;BME280;20588;48.840;10.064;2023-03-03T18:21:36;96813.00;;;3.31;nan
34328;BME280;20588;48.840;10.064;2023-03-03T18:24:29;96808.38;;;3.19;nan
34328;BME280;20588;48.840;10.064;2023-03-03T18:40:58;96825.34;;;2.53;nan
34328;BME280;20588;48.840;10.064;2023-03-03T18:43:38;96838.00;;;2.45;nan
34328;BME280;20588;48.840;10.064;2023-03-03T18:56:45;96849.16;;;2.01;nan
34328;BME280;20588;48.840;10.064;2023-03-03T19:07:29;96863.06;;;1.71;nan
34328;BME280;20588;48.840;10.064;2023-03-03T19:12:52;96869.75;;;1.54;nan